sensor_id;sensor_type;location;lat;lon;timestamp;P1;durP1;ratioP1;P2;durP2;ratioP2
42194;SDS011;27863;49.440;11.102;2023-05-29T00:02:57;5.40;;;2.03;;
42194;SDS011;27863;49.440;11.102;2023-05-29T00:05:58;4.03;;;2.47;;
42194;SDS011;27863;49.440;11.102;2023-05-29T00:09:01;3.30;;;2.20;;
42194;SDS011;27863;49.440;11.102;2023-05-29T00:12:01;3.10;;;1.95;;
42194;SDS011;27863;49.440;11.102;2023-05-29T00:15:02;5.25;;;2.45;;
42194;SDS011;27863;49.440;11.102;2023-05-29T00:18:03;3.03;;;2.28;;
42194;SDS011;27863;49.440;11.102;2023-05-29T00:21:04;6.32;;;2.60;;
42194;SDS011;27863;49.440;11.102;2023-05-29T00:24:06;2.83;;;2.25;;
42194;SDS011;27863;49.440;11.102;2023-05-29T00:27:07;3.85;;;2.33;;
42194;SDS011;27863;49.440;11.102;2023-05-29T00:30:08;2.65;;;1.92;;
42194;SDS011;27863;49.440;11.102;2023-05-29T00:33:09;3.22;;;2.80;;
42194;SDS011;27863;49.440;11.102;2023-05-29T00:36:10;2.88;;;2.25;;
42194;SDS011;27863;49.440;11.102;2023-05-29T00:39:10;5.97;;;2.95;;
42194;SDS011;27863;49.440;11.102;2023-05-29T00:42:17;3.33;;;2.28;;
42194;SDS011;27863;49.440;11.102;2023-05-29T00:45:17;4.40;;;2.63;;
42194;SDS011;27863;49.440;11.102;2023-05-29T00:48:20;3.53;;;2.35;;
42194;SDS011;27863;49.440;11.102;2023-05-29T00:51:20;4.10;;;2.78;;
42194;SDS011;27863;49.440;11.102;2023-05-29T00:54:23;3.55;;;2.00;;
42194;SDS011;27863;49.440;11.102;2023-05-29T00:57:27;4.80;;;2.83;;
42194;SDS011;27863;49.440;11.102;2023-05-29T01:00:28;2.75;;;2.30;;
42194;SDS011;27863;49.440;11.102;2023-05-29T01:03:30;3.35;;;2.78;;
42194;SDS011;27863;49.440;11.102;2023-05-29T01:06:33;2.92;;;2.25;;
42194;SDS011;27863;49.440;11.102;2023-05-29T01:09:34;3.08;;;2.25;;
42194;SDS011;27863;49.440;11.102;2023-05-29T01:22:25;5.03;;;2.63;;
42194;SDS011;27863;49.440;11.102;2023-05-29T01:29:23;2.83;;;2.40;;
42194;SDS011;27863;49.440;11.102;2023-05-29T01:32:27;2.65;;;2.22;;
42194;SDS011;27863;49.440;11.102;2023-05-29T01:35:29;2.72;;;2.40;;
42194;SDS011;27863;49.440;11.102;2023-05-29T01:38:29;3.20;;;2.90;;
42194;SDS011;27863;49.440;11.102;2023-05-29T01:41:30;5.47;;;3.17;;
42194;SDS011;27863;49.440;11.102;2023-05-29T01:44:32;3.78;;;2.63;;
42194;SDS011;27863;49.440;11.102;2023-05-29T01:47:33;2.75;;;2.47;;
42194;SDS011;27863;49.440;11.102;2023-05-29T01:50:34;3.77;;;2.67;;
42194;SDS011;27863;49.440;11.102;2023-05-29T01:53:35;3.20;;;2.20;;
42194;SDS011;27863;49.440;11.102;2023-05-29T01:56:35;4.03;;;2.60;;
42194;SDS011;27863;49.440;11.102;2023-05-29T01:59:36;3.50;;;2.70;;
42194;SDS011;27863;49.440;11.102;2023-05-29T02:02:38;4.93;;;2.17;;
42194;SDS011;27863;49.440;11.102;2023-05-29T02:05:39;2.73;;;2.23;;
42194;SDS011;27863;49.440;11.102;2023-05-29T02:08:39;7.70;;;2.30;;
42194;SDS011;27863;49.440;11.102;2023-05-29T02:11:40;3.17;;;2.27;;
42194;SDS011;27863;49.440;11.102;2023-05-29T02:14:45;4.00;;;2.60;;
42194;SDS011;27863;49.440;11.102;2023-05-29T02:17:46;4.53;;;2.73;;
42194;SDS011;27863;49.440;11.102;2023-05-29T02:20:47;4.77;;;2.70;;
42194;SDS011;27863;49.440;11.102;2023-05-29T02:23:55;5.23;;;2.37;;
42194;SDS011;27863;49.440;11.102;2023-05-29T02:26:55;3.43;;;2.83;;
42194;SDS011;27863;49.440;11.102;2023-05-29T02:29:56;3.13;;;2.93;;
42194;SDS011;27863;49.440;11.102;2023-05-29T02:32:56;2.90;;;2.40;;
42194;SDS011;27863;49.440;11.102;2023-05-29T02:35:57;3.60;;;2.30;;
42194;SDS011;27863;49.440;11.102;2023-05-29T02:38:58;3.57;;;2.50;;
42194;SDS011;27863;49.440;11.102;2023-05-29T02:41:58;2.93;;;2.33;;
42194;SDS011;27863;49.440;11.102;2023-05-29T02:44:58;3.30;;;2.30;;
42194;SDS011;27863;49.440;11.102;2023-05-29T02:47:59;4.53;;;3.37;;
42194;SDS011;27863;49.440;11.102;2023-05-29T02:51:00;2.27;;;2.07;;
42194;SDS011;27863;49.440;11.102;2023-05-29T02:54:01;2.70;;;2.23;;
42194;SDS011;27863;49.440;11.102;2023-05-29T02:57:01;2.90;;;2.57;;
42194;SDS011;27863;49.440;11.102;2023-05-29T03:00:02;5.20;;;2.77;;
42194;SDS011;27863;49.440;11.102;2023-05-29T03:03:07;3.57;;;2.83;;
42194;SDS011;27863;49.440;11.102;2023-05-29T03:06:08;4.20;;;3.10;;
42194;SDS011;27863;49.440;11.102;2023-05-29T03:09:10;2.77;;;2.57;;
42194;SDS011;27863;49.440;11.102;2023-05-29T03:12:10;3.47;;;2.63;;
42194;SDS011;27863;49.440;11.102;2023-05-29T03:15:11;3.43;;;2.67;;
42194;SDS011;27863;49.440;11.102;2023-05-29T03:18:12;2.43;;;2.20;;
42194;SDS011;27863;49.440;11.102;2023-05-29T03:21:12;3.43;;;2.80;;
42194;SDS011;27863;49.440;11.102;2023-05-29T03:24:13;3.60;;;2.60;;
42194;SDS011;27863;49.440;11.102;2023-05-29T03:27:14;4.37;;;2.87;;
42194;SDS011;27863;49.440;11.102;2023-05-29T03:30:16;2.73;;;2.47;;
42194;SDS011;27863;49.440;11.102;2023-05-29T03:33:17;3.93;;;2.53;;
42194;SDS011;27863;49.440;11.102;2023-05-29T03:36:34;3.20;;;2.83;;
42194;SDS011;27863;49.440;11.102;2023-05-29T03:39:36;3.20;;;2.90;;
42194;SDS011;27863;49.440;11.102;2023-05-29T03:42:39;3.63;;;2.83;;
42194;SDS011;27863;49.440;11.102;2023-05-29T03:45:40;4.60;;;2.23;;
42194;SDS011;27863;49.440;11.102;2023-05-29T03:48:41;2.93;;;2.60;;
42194;SDS011;27863;49.440;11.102;2023-05-29T03:51:42;2.77;;;2.20;;
42194;SDS011;27863;49.440;11.102;2023-05-29T03:54:43;2.60;;;2.20;;
42194;SDS011;27863;49.440;11.102;2023-05-29T03:57:45;6.10;;;2.33;;
42194;SDS011;27863;49.440;11.102;2023-05-29T04:00:46;3.13;;;2.43;;
42194;SDS011;27863;49.440;11.102;2023-05-29T04:03:49;3.30;;;2.77;;
42194;SDS011;27863;49.440;11.102;2023-05-29T04:06:50;2.90;;;2.57;;
42194;SDS011;27863;49.440;11.102;2023-05-29T04:09:52;2.97;;;2.43;;
42194;SDS011;27863;49.440;11.102;2023-05-29T04:12:52;3.93;;;2.87;;
42194;SDS011;27863;49.440;11.102;2023-05-29T04:15:53;5.57;;;2.60;;
42194;SDS011;27863;49.440;11.102;2023-05-29T04:18:54;2.72;;;2.47;;
42194;SDS011;27863;49.440;11.102;2023-05-29T04:21:57;3.88;;;2.58;;
42194;SDS011;27863;49.440;11.102;2023-05-29T04:24:57;3.50;;;2.63;;
42194;SDS011;27863;49.440;11.102;2023-05-29T04:27:58;3.10;;;2.67;;
42194;SDS011;27863;49.440;11.102;2023-05-29T04:31:02;2.97;;;2.67;;
42194;SDS011;27863;49.440;11.102;2023-05-29T04:34:03;4.13;;;2.60;;
42194;SDS011;27863;49.440;11.102;2023-05-29T04:37:05;4.77;;;2.60;;
42194;SDS011;27863;49.440;11.102;2023-05-29T04:40:07;3.63;;;2.67;;
42194;SDS011;27863;49.440;11.102;2023-05-29T04:43:11;3.27;;;2.97;;
42194;SDS011;27863;49.440;11.102;2023-05-29T04:46:32;4.07;;;2.30;;
42194;SDS011;27863;49.440;11.102;2023-05-29T04:49:34;3.00;;;2.70;;
42194;SDS011;27863;49.440;11.102;2023-05-29T04:52:35;3.13;;;2.83;;
42194;SDS011;27863;49.440;11.102;2023-05-29T04:55:38;7.37;;;2.30;;
42194;SDS011;27863;49.440;11.102;2023-05-29T04:58:38;3.60;;;2.73;;
42194;SDS011;27863;49.440;11.102;2023-05-29T05:01:39;3.87;;;2.40;;
42194;SDS011;27863;49.440;11.102;2023-05-29T05:04:43;4.57;;;3.45;;
42194;SDS011;27863;49.440;11.102;2023-05-29T05:07:45;2.50;;;2.30;;
42194;SDS011;27863;49.440;11.102;2023-05-29T05:10:47;3.00;;;2.70;;
42194;SDS011;27863;49.440;11.102;2023-05-29T05:13:47;4.88;;;2.30;;
42194;SDS011;27863;49.440;11.102;2023-05-29T05:16:48;3.78;;;2.65;;
42194;SDS011;27863;49.440;11.102;2023-05-29T05:19:48;5.35;;;2.38;;
42194;SDS011;27863;49.440;11.102;2023-05-29T05:22:49;3.60;;;2.05;;
42194;SDS011;27863;49.440;11.102;2023-05-29T05:25:50;3.38;;;2.50;;
42194;SDS011;27863;49.440;11.102;2023-05-29T05:28:50;6.78;;;2.72;;
42194;SDS011;27863;49.440;11.102;2023-05-29T05:31:51;2.25;;;2.08;;
42194;SDS011;27863;49.440;11.102;2023-05-29T05:34:52;2.90;;;2.60;;
42194;SDS011;27863;49.440;11.102;2023-05-29T05:37:53;2.42;;;2.20;;
42194;SDS011;27863;49.440;11.102;2023-05-29T05:40:54;3.22;;;2.78;;
42194;SDS011;27863;49.440;11.102;2023-05-29T05:44:01;4.03;;;2.70;;
42194;SDS011;27863;49.440;11.102;2023-05-29T05:47:20;2.60;;;2.33;;
42194;SDS011;27863;49.440;11.102;2023-05-29T05:50:22;3.22;;;2.65;;
42194;SDS011;27863;49.440;11.102;2023-05-29T05:53:22;3.42;;;2.67;;
42194;SDS011;27863;49.440;11.102;2023-05-29T05:56:23;2.80;;;2.60;;
42194;SDS011;27863;49.440;11.102;2023-05-29T05:59:24;2.97;;;1.98;;
42194;SDS011;27863;49.440;11.102;2023-05-29T06:02:27;3.72;;;2.65;;
42194;SDS011;27863;49.440;11.102;2023-05-29T06:05:27;3.55;;;2.42;;
42194;SDS011;27863;49.440;11.102;2023-05-29T06:08:28;4.10;;;2.60;;
42194;SDS011;27863;49.440;11.102;2023-05-29T06:11:30;2.63;;;2.28;;
42194;SDS011;27863;49.440;11.102;2023-05-29T06:14:32;2.63;;;2.22;;
42194;SDS011;27863;49.440;11.102;2023-05-29T06:17:33;6.50;;;2.60;;
42194;SDS011;27863;49.440;11.102;2023-05-29T06:20:33;5.00;;;2.67;;
42194;SDS011;27863;49.440;11.102;2023-05-29T06:23:36;2.95;;;2.40;;
42194;SDS011;27863;49.440;11.102;2023-05-29T06:26:36;5.28;;;2.33;;
42194;SDS011;27863;49.440;11.102;2023-05-29T06:29:39;2.90;;;2.33;;
42194;SDS011;27863;49.440;11.102;2023-05-29T06:32:41;2.45;;;2.22;;
42194;SDS011;27863;49.440;11.102;2023-05-29T06:35:42;2.45;;;2.13;;
42194;SDS011;27863;49.440;11.102;2023-05-29T06:38:47;13.05;;;3.40;;
42194;SDS011;27863;49.440;11.102;2023-05-29T06:41:48;3.25;;;2.25;;
42194;SDS011;27863;49.440;11.102;2023-05-29T06:44:52;2.67;;;2.35;;
42194;SDS011;27863;49.440;11.102;2023-05-29T06:47:52;2.78;;;2.58;;
42194;SDS011;27863;49.440;11.102;2023-05-29T06:50:53;3.00;;;2.17;;
42194;SDS011;27863;49.440;11.102;2023-05-29T06:54:17;3.20;;;1.80;;
42194;SDS011;27863;49.440;11.102;2023-05-29T06:57:17;2.78;;;2.22;;
42194;SDS011;27863;49.440;11.102;2023-05-29T07:00:18;2.97;;;1.98;;
42194;SDS011;27863;49.440;11.102;2023-05-29T07:03:39;3.47;;;2.08;;
42194;SDS011;27863;49.440;11.102;2023-05-29T07:06:39;1.80;;;1.70;;
42194;SDS011;27863;49.440;11.102;2023-05-29T07:09:40;3.65;;;1.90;;
42194;SDS011;27863;49.440;11.102;2023-05-29T07:12:41;3.35;;;2.00;;
42194;SDS011;27863;49.440;11.102;2023-05-29T07:15:42;3.53;;;1.85;;
42194;SDS011;27863;49.440;11.102;2023-05-29T07:18:43;3.60;;;2.38;;
42194;SDS011;27863;49.440;11.102;2023-05-29T07:21:43;2.55;;;2.20;;
42194;SDS011;27863;49.440;11.102;2023-05-29T07:24:44;3.40;;;1.85;;
42194;SDS011;27863;49.440;11.102;2023-05-29T07:27:45;4.72;;;2.40;;
42194;SDS011;27863;49.440;11.102;2023-05-29T07:30:46;2.60;;;2.05;;
42194;SDS011;27863;49.440;11.102;2023-05-29T07:33:47;2.50;;;1.98;;
42194;SDS011;27863;49.440;11.102;2023-05-29T07:36:56;3.35;;;2.38;;
42194;SDS011;27863;49.440;11.102;2023-05-29T07:39:58;2.10;;;1.90;;
42194;SDS011;27863;49.440;11.102;2023-05-29T07:43:24;1.88;;;1.73;;
42194;SDS011;27863;49.440;11.102;2023-05-29T07:46:32;2.70;;;2.13;;
42194;SDS011;27863;49.440;11.102;2023-05-29T07:49:53;3.08;;;2.05;;
42194;SDS011;27863;49.440;11.102;2023-05-29T07:52:57;2.13;;;1.92;;
42194;SDS011;27863;49.440;11.102;2023-05-29T07:55:58;2.05;;;1.77;;
42194;SDS011;27863;49.440;11.102;2023-05-29T07:58:58;2.78;;;2.30;;
42194;SDS011;27863;49.440;11.102;2023-05-29T08:01:59;2.97;;;2.20;;
42194;SDS011;27863;49.440;11.102;2023-05-29T08:05:17;1.95;;;1.75;;
42194;SDS011;27863;49.440;11.102;2023-05-29T08:08:18;3.25;;;1.80;;
42194;SDS011;27863;49.440;11.102;2023-05-29T08:11:21;3.55;;;1.90;;
42194;SDS011;27863;49.440;11.102;2023-05-29T08:14:22;2.88;;;1.83;;
42194;SDS011;27863;49.440;11.102;2023-05-29T08:17:23;2.72;;;1.95;;
42194;SDS011;27863;49.440;11.102;2023-05-29T08:20:23;2.50;;;2.08;;
42194;SDS011;27863;49.440;11.102;2023-05-29T08:23:24;2.67;;;1.80;;
42194;SDS011;27863;49.440;11.102;2023-05-29T08:26:25;2.40;;;1.92;;
42194;SDS011;27863;49.440;11.102;2023-05-29T08:29:26;3.20;;;1.80;;
42194;SDS011;27863;49.440;11.102;2023-05-29T08:32:28;2.85;;;2.20;;
42194;SDS011;27863;49.440;11.102;2023-05-29T08:35:29;1.67;;;1.58;;
42194;SDS011;27863;49.440;11.102;2023-05-29T08:38:30;3.10;;;2.00;;
42194;SDS011;27863;49.440;11.102;2023-05-29T08:44:34;3.25;;;1.90;;
42194;SDS011;27863;49.440;11.102;2023-05-29T08:47:36;2.42;;;2.22;;
42194;SDS011;27863;49.440;11.102;2023-05-29T08:50:45;1.88;;;1.67;;
42194;SDS011;27863;49.440;11.102;2023-05-29T08:53:59;1.70;;;1.60;;
42194;SDS011;27863;49.440;11.102;2023-05-29T08:57:00;1.77;;;1.63;;
42194;SDS011;27863;49.440;11.102;2023-05-29T09:00:01;2.60;;;1.98;;
42194;SDS011;27863;49.440;11.102;2023-05-29T09:03:09;3.63;;;2.28;;
42194;SDS011;27863;49.440;11.102;2023-05-29T09:06:09;2.42;;;2.22;;
42194;SDS011;27863;49.440;11.102;2023-05-29T09:09:10;2.20;;;2.00;;
42194;SDS011;27863;49.440;11.102;2023-05-29T09:12:11;2.85;;;2.30;;
42194;SDS011;27863;49.440;11.102;2023-05-29T09:18:19;2.28;;;2.00;;
42194;SDS011;27863;49.440;11.102;2023-05-29T09:21:26;1.90;;;1.70;;
42194;SDS011;27863;49.440;11.102;2023-05-29T09:24:28;2.35;;;1.90;;
42194;SDS011;27863;49.440;11.102;2023-05-29T09:27:28;2.38;;;2.17;;
42194;SDS011;27863;49.440;11.102;2023-05-29T09:30:34;2.00;;;1.80;;
42194;SDS011;27863;49.440;11.102;2023-05-29T09:33:46;2.17;;;1.98;;
42194;SDS011;27863;49.440;11.102;2023-05-29T09:36:47;3.30;;;1.70;;
42194;SDS011;27863;49.440;11.102;2023-05-29T09:39:48;2.15;;;1.92;;
42194;SDS011;27863;49.440;11.102;2023-05-29T09:42:48;2.10;;;2.00;;
42194;SDS011;27863;49.440;11.102;2023-05-29T09:45:49;2.85;;;1.70;;
42194;SDS011;27863;49.440;11.102;2023-05-29T09:48:50;2.63;;;2.30;;
42194;SDS011;27863;49.440;11.102;2023-05-29T09:51:53;4.47;;;2.20;;
42194;SDS011;27863;49.440;11.102;2023-05-29T09:54:54;3.47;;;2.40;;
42194;SDS011;27863;49.440;11.102;2023-05-29T09:57:56;2.47;;;2.05;;
42194;SDS011;27863;49.440;11.102;2023-05-29T10:00:57;2.95;;;2.53;;
42194;SDS011;27863;49.440;11.102;2023-05-29T10:03:58;3.25;;;2.25;;
42194;SDS011;27863;49.440;11.102;2023-05-29T10:07:08;2.03;;;1.80;;
42194;SDS011;27863;49.440;11.102;2023-05-29T10:10:11;3.08;;;2.45;;
42194;SDS011;27863;49.440;11.102;2023-05-29T10:13:13;2.80;;;2.45;;
42194;SDS011;27863;49.440;11.102;2023-05-29T10:16:14;3.00;;;2.50;;
42194;SDS011;27863;49.440;11.102;2023-05-29T10:19:21;2.92;;;2.08;;
42194;SDS011;27863;49.440;11.102;2023-05-29T10:22:26;7.32;;;2.20;;
42194;SDS011;27863;49.440;11.102;2023-05-29T10:25:27;2.70;;;2.05;;
42194;SDS011;27863;49.440;11.102;2023-05-29T10:28:31;2.35;;;2.10;;
42194;SDS011;27863;49.440;11.102;2023-05-29T10:31:39;3.38;;;2.03;;
42194;SDS011;27863;49.440;11.102;2023-05-29T10:35:01;2.47;;;2.15;;
42194;SDS011;27863;49.440;11.102;2023-05-29T10:38:10;2.42;;;2.22;;
42194;SDS011;27863;49.440;11.102;2023-05-29T10:47:32;3.10;;;2.20;;
42194;SDS011;27863;49.440;11.102;2023-05-29T10:50:45;2.42;;;2.20;;
42194;SDS011;27863;49.440;11.102;2023-05-29T10:53:50;3.97;;;1.80;;
42194;SDS011;27863;49.440;11.102;2023-05-29T10:56:57;3.13;;;2.38;;
42194;SDS011;27863;49.440;11.102;2023-05-29T11:00:02;4.28;;;2.50;;
42194;SDS011;27863;49.440;11.102;2023-05-29T11:03:31;2.88;;;1.88;;
42194;SDS011;27863;49.440;11.102;2023-05-29T11:06:34;1.98;;;1.60;;
42194;SDS011;27863;49.440;11.102;2023-05-29T11:09:38;2.17;;;1.98;;
42194;SDS011;27863;49.440;11.102;2023-05-29T11:13:02;1.88;;;1.73;;
42194;SDS011;27863;49.440;11.102;2023-05-29T11:19:25;3.15;;;1.63;;
42194;SDS011;27863;49.440;11.102;2023-05-29T11:22:29;1.95;;;1.75;;
42194;SDS011;27863;49.440;11.102;2023-05-29T11:25:42;2.20;;;2.00;;
42194;SDS011;27863;49.440;11.102;2023-05-29T11:28:44;2.58;;;2.22;;
42194;SDS011;27863;49.440;11.102;2023-05-29T11:31:46;3.25;;;1.85;;
42194;SDS011;27863;49.440;11.102;2023-05-29T11:34:49;2.28;;;2.08;;
42194;SDS011;27863;49.440;11.102;2023-05-29T11:37:52;1.70;;;1.60;;
42194;SDS011;27863;49.440;11.102;2023-05-29T11:40:54;1.65;;;1.45;;
42194;SDS011;27863;49.440;11.102;2023-05-29T11:44:02;2.30;;;1.90;;
42194;SDS011;27863;49.440;11.102;2023-05-29T11:47:06;1.85;;;1.67;;
42194;SDS011;27863;49.440;11.102;2023-05-29T11:50:20;2.20;;;1.52;;
42194;SDS011;27863;49.440;11.102;2023-05-29T11:53:25;2.22;;;1.83;;
42194;SDS011;27863;49.440;11.102;2023-05-29T11:56:29;2.30;;;2.10;;
42194;SDS011;27863;49.440;11.102;2023-05-29T11:59:31;2.15;;;1.60;;
42194;SDS011;27863;49.440;11.102;2023-05-29T12:02:32;1.77;;;1.67;;
42194;SDS011;27863;49.440;11.102;2023-05-29T12:05:38;2.03;;;1.83;;
42194;SDS011;27863;49.440;11.102;2023-05-29T12:08:50;2.08;;;1.88;;
42194;SDS011;27863;49.440;11.102;2023-05-29T12:11:51;3.38;;;1.63;;
42194;SDS011;27863;49.440;11.102;2023-05-29T12:14:52;6.05;;;1.80;;
42194;SDS011;27863;49.440;11.102;2023-05-29T12:17:53;1.55;;;1.45;;
42194;SDS011;27863;49.440;11.102;2023-05-29T12:20:58;1.98;;;1.50;;
42194;SDS011;27863;49.440;11.102;2023-05-29T12:24:01;2.00;;;1.83;;
42194;SDS011;27863;49.440;11.102;2023-05-29T12:27:05;1.58;;;1.40;;
42194;SDS011;27863;49.440;11.102;2023-05-29T12:30:08;1.60;;;1.50;;
42194;SDS011;27863;49.440;11.102;2023-05-29T12:33:10;2.30;;;1.20;;
42194;SDS011;27863;49.440;11.102;2023-05-29T12:36:25;1.80;;;1.58;;
42194;SDS011;27863;49.440;11.102;2023-05-29T12:39:26;6.07;;;1.50;;
42194;SDS011;27863;49.440;11.102;2023-05-29T12:42:27;1.48;;;1.38;;
42194;SDS011;27863;49.440;11.102;2023-05-29T12:45:33;1.50;;;1.40;;
42194;SDS011;27863;49.440;11.102;2023-05-29T12:48:38;3.38;;;1.80;;
42194;SDS011;27863;49.440;11.102;2023-05-29T12:51:42;2.28;;;1.42;;
42194;SDS011;27863;49.440;11.102;2023-05-29T12:54:48;2.03;;;1.65;;
42194;SDS011;27863;49.440;11.102;2023-05-29T12:57:49;2.65;;;1.55;;
42194;SDS011;27863;49.440;11.102;2023-05-29T13:00:51;1.77;;;1.67;;
42194;SDS011;27863;49.440;11.102;2023-05-29T13:03:55;4.22;;;1.42;;
42194;SDS011;27863;49.440;11.102;2023-05-29T13:06:56;1.73;;;1.63;;
42194;SDS011;27863;49.440;11.102;2023-05-29T13:09:56;3.78;;;2.05;;
42194;SDS011;27863;49.440;11.102;2023-05-29T13:12:57;2.15;;;1.40;;
42194;SDS011;27863;49.440;11.102;2023-05-29T13:15:59;1.50;;;1.40;;
42194;SDS011;27863;49.440;11.102;2023-05-29T13:18:59;2.55;;;1.70;;
42194;SDS011;27863;49.440;11.102;2023-05-29T13:22:00;2.60;;;1.75;;
42194;SDS011;27863;49.440;11.102;2023-05-29T13:25:00;3.25;;;1.55;;
42194;SDS011;27863;49.440;11.102;2023-05-29T13:28:01;1.38;;;1.27;;
42194;SDS011;27863;49.440;11.102;2023-05-29T13:31:01;8.13;;;1.80;;
42194;SDS011;27863;49.440;11.102;2023-05-29T13:34:02;1.60;;;1.50;;
42194;SDS011;27863;49.440;11.102;2023-05-29T13:37:03;2.72;;;2.53;;
42194;SDS011;27863;49.440;11.102;2023-05-29T13:40:04;1.95;;;1.83;;
42194;SDS011;27863;49.440;11.102;2023-05-29T13:43:06;1.92;;;1.58;;
42194;SDS011;27863;49.440;11.102;2023-05-29T13:46:06;3.03;;;1.60;;
42194;SDS011;27863;49.440;11.102;2023-05-29T13:49:07;1.90;;;1.70;;
42194;SDS011;27863;49.440;11.102;2023-05-29T13:52:07;2.45;;;1.75;;
42194;SDS011;27863;49.440;11.102;2023-05-29T13:55:08;1.90;;;1.70;;
42194;SDS011;27863;49.440;11.102;2023-05-29T13:58:09;2.00;;;1.80;;
42194;SDS011;27863;49.440;11.102;2023-05-29T14:01:10;2.60;;;1.70;;
42194;SDS011;27863;49.440;11.102;2023-05-29T14:04:16;2.60;;;1.77;;
42194;SDS011;27863;49.440;11.102;2023-05-29T14:07:17;2.22;;;1.73;;
42194;SDS011;27863;49.440;11.102;2023-05-29T14:10:17;2.20;;;2.00;;
42194;SDS011;27863;49.440;11.102;2023-05-29T14:13:18;3.45;;;1.95;;
42194;SDS011;27863;49.440;11.102;2023-05-29T14:16:18;1.88;;;1.67;;
42194;SDS011;27863;49.440;11.102;2023-05-29T14:19:19;2.97;;;1.58;;
42194;SDS011;27863;49.440;11.102;2023-05-29T14:22:19;1.70;;;1.52;;
42194;SDS011;27863;49.440;11.102;2023-05-29T14:25:20;2.17;;;1.83;;
42194;SDS011;27863;49.440;11.102;2023-05-29T14:28:20;2.20;;;1.85;;
42194;SDS011;27863;49.440;11.102;2023-05-29T14:31:21;1.70;;;1.60;;
42194;SDS011;27863;49.440;11.102;2023-05-29T14:34:22;2.10;;;1.90;;
42194;SDS011;27863;49.440;11.102;2023-05-29T14:37:22;2.00;;;1.73;;
42194;SDS011;27863;49.440;11.102;2023-05-29T14:40:23;2.13;;;1.83;;
42194;SDS011;27863;49.440;11.102;2023-05-29T14:43:23;3.00;;;1.80;;
42194;SDS011;27863;49.440;11.102;2023-05-29T14:46:25;1.70;;;1.60;;
42194;SDS011;27863;49.440;11.102;2023-05-29T14:49:26;2.55;;;1.95;;
42194;SDS011;27863;49.440;11.102;2023-05-29T14:52:32;1.90;;;1.80;;
42194;SDS011;27863;49.440;11.102;2023-05-29T14:55:32;5.53;;;1.67;;
42194;SDS011;27863;49.440;11.102;2023-05-29T14:58:37;2.83;;;1.80;;
42194;SDS011;27863;49.440;11.102;2023-05-29T15:01:38;2.05;;;1.63;;
42194;SDS011;27863;49.440;11.102;2023-05-29T15:04:38;2.90;;;1.40;;
42194;SDS011;27863;49.440;11.102;2023-05-29T15:07:39;2.20;;;1.58;;
42194;SDS011;27863;49.440;11.102;2023-05-29T15:10:39;2.50;;;1.70;;
42194;SDS011;27863;49.440;11.102;2023-05-29T15:13:40;2.05;;;1.85;;
42194;SDS011;27863;49.440;11.102;2023-05-29T15:16:41;2.22;;;1.98;;
42194;SDS011;27863;49.440;11.102;2023-05-29T15:19:42;4.18;;;1.98;;
42194;SDS011;27863;49.440;11.102;2023-05-29T15:22:42;3.13;;;1.85;;
42194;SDS011;27863;49.440;11.102;2023-05-29T15:25:43;3.35;;;2.42;;
42194;SDS011;27863;49.440;11.102;2023-05-29T15:28:43;2.20;;;1.98;;
42194;SDS011;27863;49.440;11.102;2023-05-29T15:31:44;2.58;;;1.90;;
42194;SDS011;27863;49.440;11.102;2023-05-29T15:34:46;2.00;;;1.83;;
42194;SDS011;27863;49.440;11.102;2023-05-29T15:37:47;3.17;;;2.20;;
42194;SDS011;27863;49.440;11.102;2023-05-29T15:40:48;2.03;;;1.83;;
42194;SDS011;27863;49.440;11.102;2023-05-29T15:43:48;2.53;;;1.65;;
42194;SDS011;27863;49.440;11.102;2023-05-29T15:46:49;2.00;;;1.60;;
42194;SDS011;27863;49.440;11.102;2023-05-29T15:49:49;1.73;;;1.63;;
42194;SDS011;27863;49.440;11.102;2023-05-29T15:52:50;2.75;;;2.33;;
42194;SDS011;27863;49.440;11.102;2023-05-29T15:55:51;3.25;;;2.15;;
42194;SDS011;27863;49.440;11.102;2023-05-29T15:58:51;6.63;;;1.77;;
42194;SDS011;27863;49.440;11.102;2023-05-29T16:01:52;3.13;;;2.28;;
42194;SDS011;27863;49.440;11.102;2023-05-29T16:04:53;1.80;;;1.60;;
42194;SDS011;27863;49.440;11.102;2023-05-29T16:07:53;3.00;;;1.92;;
42194;SDS011;27863;49.440;11.102;2023-05-29T16:10:54;5.18;;;1.73;;
42194;SDS011;27863;49.440;11.102;2023-05-29T16:13:54;2.60;;;2.20;;
42194;SDS011;27863;49.440;11.102;2023-05-29T16:16:55;2.28;;;1.75;;
42194;SDS011;27863;49.440;11.102;2023-05-29T16:19:56;3.17;;;2.13;;
42194;SDS011;27863;49.440;11.102;2023-05-29T16:22:56;2.42;;;2.17;;
42194;SDS011;27863;49.440;11.102;2023-05-29T16:25:57;3.70;;;2.38;;
42194;SDS011;27863;49.440;11.102;2023-05-29T16:28:58;3.13;;;2.00;;
42194;SDS011;27863;49.440;11.102;2023-05-29T16:31:59;2.80;;;2.42;;
42194;SDS011;27863;49.440;11.102;2023-05-29T16:35:01;3.60;;;2.00;;
42194;SDS011;27863;49.440;11.102;2023-05-29T16:38:02;4.18;;;2.22;;
42194;SDS011;27863;49.440;11.102;2023-05-29T16:41:03;2.40;;;2.13;;
42194;SDS011;27863;49.440;11.102;2023-05-29T16:44:03;3.22;;;2.28;;
42194;SDS011;27863;49.440;11.102;2023-05-29T16:47:04;3.63;;;2.42;;
42194;SDS011;27863;49.440;11.102;2023-05-29T16:50:05;3.17;;;2.25;;
42194;SDS011;27863;49.440;11.102;2023-05-29T16:53:06;2.88;;;2.63;;
42194;SDS011;27863;49.440;11.102;2023-05-29T16:56:06;2.55;;;2.35;;
42194;SDS011;27863;49.440;11.102;2023-05-29T16:59:07;3.13;;;2.50;;
42194;SDS011;27863;49.440;11.102;2023-05-29T17:02:07;4.43;;;2.58;;
42194;SDS011;27863;49.440;11.102;2023-05-29T17:05:08;3.05;;;2.08;;
42194;SDS011;27863;49.440;11.102;2023-05-29T17:08:09;4.53;;;2.80;;
42194;SDS011;27863;49.440;11.102;2023-05-29T17:11:11;6.47;;;2.88;;
42194;SDS011;27863;49.440;11.102;2023-05-29T17:14:12;3.05;;;2.80;;
42194;SDS011;27863;49.440;11.102;2023-05-29T17:17:13;4.00;;;2.15;;
42194;SDS011;27863;49.440;11.102;2023-05-29T17:20:14;4.15;;;2.47;;
42194;SDS011;27863;49.440;11.102;2023-05-29T17:23:16;3.63;;;2.05;;
42194;SDS011;27863;49.440;11.102;2023-05-29T17:26:16;2.33;;;2.13;;
42194;SDS011;27863;49.440;11.102;2023-05-29T17:29:17;3.85;;;2.20;;
42194;SDS011;27863;49.440;11.102;2023-05-29T17:32:17;5.50;;;2.47;;
42194;SDS011;27863;49.440;11.102;2023-05-29T17:35:19;4.50;;;2.50;;
42194;SDS011;27863;49.440;11.102;2023-05-29T17:38:20;4.60;;;2.28;;
42194;SDS011;27863;49.440;11.102;2023-05-29T17:41:20;2.55;;;2.35;;
42194;SDS011;27863;49.440;11.102;2023-05-29T17:44:21;4.32;;;2.22;;
42194;SDS011;27863;49.440;11.102;2023-05-29T17:47:21;2.97;;;2.67;;
42194;SDS011;27863;49.440;11.102;2023-05-29T17:50:22;2.63;;;2.30;;
42194;SDS011;27863;49.440;11.102;2023-05-29T17:53:22;3.28;;;2.40;;
42194;SDS011;27863;49.440;11.102;2023-05-29T17:56:23;2.85;;;2.22;;
42194;SDS011;27863;49.440;11.102;2023-05-29T17:59:24;3.05;;;1.95;;
42194;SDS011;27863;49.440;11.102;2023-05-29T18:02:25;2.80;;;2.35;;
42194;SDS011;27863;49.440;11.102;2023-05-29T18:05:26;4.32;;;2.33;;
42194;SDS011;27863;49.440;11.102;2023-05-29T18:08:27;7.07;;;2.45;;
42194;SDS011;27863;49.440;11.102;2023-05-29T18:11:28;3.38;;;2.20;;
42194;SDS011;27863;49.440;11.102;2023-05-29T18:14:28;2.35;;;2.15;;
42194;SDS011;27863;49.440;11.102;2023-05-29T18:17:29;3.70;;;2.35;;
42194;SDS011;27863;49.440;11.102;2023-05-29T18:20:29;2.63;;;2.25;;
42194;SDS011;27863;49.440;11.102;2023-05-29T18:23:30;2.45;;;2.25;;
42194;SDS011;27863;49.440;11.102;2023-05-29T18:26:30;5.75;;;2.63;;
42194;SDS011;27863;49.440;11.102;2023-05-29T18:29:31;4.60;;;2.05;;
42194;SDS011;27863;49.440;11.102;2023-05-29T18:32:33;3.15;;;2.65;;